sensor_id;sensor_type;location;lat;lon;timestamp;pressure;altitude;pressure_sealevel;temperature;humidity
83140;BME280;73027;54.208;19.128;2024-03-25T00:01:39;100002.06;;;6.80;66.38
83140;BME280;73027;54.208;19.128;2024-03-25T00:04:04;99999.50;;;6.80;66.66
83140;BME280;73027;54.208;19.128;2024-03-25T00:06:29;100002.06;;;6.80;65.98
83140;BME280;73027;54.208;19.128;2024-03-25T00:09:01;99994.31;;;6.83;66.74
83140;BME280;73027;54.208;19.128;2024-03-25T00:11:27;99994.25;;;6.85;66.70
83140;BME280;73027;54.208;19.128;2024-03-25T00:13:52;99994.22;;;6.86;66.24
83140;BME280;73027;54.208;19.128;2024-03-25T00:16:18;99993.50;;;6.81;66.34
83140;BME280;73027;54.208;19.128;2024-03-25T00:18:43;99993.47;;;6.83;66.19
83140;BME280;73027;54.208;19.128;2024-03-25T00:21:08;99984.00;;;6.85;66.66
83140;BME280;73027;54.208;19.128;2024-03-25T00:23:34;99990.78;;;6.87;66.02
83140;BME280;73027;54.208;19.128;2024-03-25T00:25:59;99989.09;;;6.86;66.27
83140;BME280;73027;54.208;19.128;2024-03-25T00:28:25;99990.78;;;6.87;66.68
83140;BME280;73027;54.208;19.128;2024-03-25T00:30:50;99984.75;;;6.88;66.12
83140;BME280;73027;54.208;19.128;2024-03-25T00:33:15;99986.47;;;6.88;66.24
83140;BME280;73027;54.208;19.128;2024-03-25T00:35:42;99991.56;;;6.89;65.95
83140;BME280;73027;54.208;19.128;2024-03-25T00:38:08;99985.66;;;6.87;65.99
83140;BME280;73027;54.208;19.128;2024-03-25T00:40:33;99989.00;;;6.89;66.35
83140;BME280;73027;54.208;19.128;2024-03-25T00:42:59;99981.31;;;6.89;66.79
83140;BME280;73027;54.208;19.128;2024-03-25T00:45:25;99986.44;;;6.89;66.00
83140;BME280;73027;54.208;19.128;2024-03-25T00:47:56;99981.41;;;6.86;66.38
83140;BME280;73027;54.208;19.128;2024-03-25T00:50:21;99987.28;;;6.90;66.42
83140;BME280;73027;54.208;19.128;2024-03-25T00:52:46;99981.34;;;6.88;66.50
83140;BME280;73027;54.208;19.128;2024-03-25T00:55:12;99983.88;;;6.89;66.87
83140;BME280;73027;54.208;19.128;2024-03-25T00:57:37;99980.47;;;6.89;66.28
83140;BME280;73027;54.208;19.128;2024-03-25T01:00:03;99984.72;;;6.90;66.89
83140;BME280;73027;54.208;19.128;2024-03-25T01:02:30;99972.75;;;6.90;66.77
83140;BME280;73027;54.208;19.128;2024-03-25T01:04:55;99978.31;;;7.03;67.00
83140;BME280;73027;54.208;19.128;2024-03-25T01:07:21;99976.44;;;7.08;66.40
83140;BME280;73027;54.208;19.128;2024-03-25T01:09:47;99981.41;;;7.12;66.41
83140;BME280;73027;54.208;19.128;2024-03-25T01:12:12;99977.03;;;7.16;66.91
83140;BME280;73027;54.208;19.128;2024-03-25T01:14:38;99972.66;;;7.19;66.24
83140;BME280;73027;54.208;19.128;2024-03-25T01:17:03;99978.47;;;7.25;66.67
83140;BME280;73027;54.208;19.128;2024-03-25T01:19:29;99975.91;;;7.25;66.64
83140;BME280;73027;54.208;19.128;2024-03-25T01:21:54;99978.47;;;7.25;66.36
83140;BME280;73027;54.208;19.128;2024-03-25T01:24:20;99977.75;;;7.21;65.92
83140;BME280;73027;54.208;19.128;2024-03-25T01:26:45;99966.75;;;7.17;66.53
83140;BME280;73027;54.208;19.128;2024-03-25T01:29:11;99983.63;;;7.23;66.46
83140;BME280;73027;54.208;19.128;2024-03-25T01:31:37;99977.63;;;7.24;67.01
83140;BME280;73027;54.208;19.128;2024-03-25T01:34:03;99974.97;;;7.27;66.75
83140;BME280;73027;54.208;19.128;2024-03-25T01:36:28;99980.88;;;7.29;66.69
83140;BME280;73027;54.208;19.128;2024-03-25T01:38:54;99968.00;;;7.31;66.15
83140;BME280;73027;54.208;19.128;2024-03-25T01:41:22;99972.22;;;7.33;66.09
83140;BME280;73027;54.208;19.128;2024-03-25T01:43:48;99973.13;;;7.31;66.66
83140;BME280;73027;54.208;19.128;2024-03-25T01:46:15;99973.94;;;7.33;66.24
83140;BME280;73027;54.208;19.128;2024-03-25T01:48:41;99975.69;;;7.31;66.69
83140;BME280;73027;54.208;19.128;2024-03-25T01:51:07;99974.78;;;7.33;66.02
83140;BME280;73027;54.208;19.128;2024-03-25T01:53:33;99968.94;;;7.30;66.84
83140;BME280;73027;54.208;19.128;2024-03-25T01:55:58;99974.84;;;7.30;65.97
83140;BME280;73027;54.208;19.128;2024-03-25T01:58:25;99961.38;;;7.25;66.49
83140;BME280;73027;54.208;19.128;2024-03-25T02:00:52;99962.97;;;7.29;66.98
83140;BME280;73027;54.208;19.128;2024-03-25T02:03:18;99964.72;;;7.27;66.63
83140;BME280;73027;54.208;19.128;2024-03-25T02:05:44;99962.88;;;7.31;66.29
83140;BME280;73027;54.208;19.128;2024-03-25T02:08:10;99967.13;;;7.32;66.99
83140;BME280;73027;54.208;19.128;2024-03-25T02:10:35;99965.41;;;7.32;66.60
83140;BME280;73027;54.208;19.128;2024-03-25T02:13:03;99970.53;;;7.32;66.84
83140;BME280;73027;54.208;19.128;2024-03-25T02:15:28;99970.69;;;7.28;66.52
83140;BME280;73027;54.208;19.128;2024-03-25T02:17:54;99965.09;;;7.15;66.45
83140;BME280;73027;54.208;19.128;2024-03-25T02:20:20;99967.88;;;7.09;66.49
83140;BME280;73027;54.208;19.128;2024-03-25T02:22:45;99972.06;;;7.11;67.14
83140;BME280;73027;54.208;19.128;2024-03-25T02:25:10;99967.63;;;7.16;66.63
83140;BME280;73027;54.208;19.128;2024-03-25T02:27:37;99965.69;;;7.23;66.65
83140;BME280;73027;54.208;19.128;2024-03-25T02:30:07;99969.06;;;7.25;66.87
83140;BME280;73027;54.208;19.128;2024-03-25T02:32:33;99967.28;;;7.27;66.53
83140;BME280;73027;54.208;19.128;2024-03-25T02:35:01;99975.75;;;7.29;66.52
83140;BME280;73027;54.208;19.128;2024-03-25T02:37:27;99971.41;;;7.31;66.64
83140;BME280;73027;54.208;19.128;2024-03-25T02:39:56;99973.94;;;7.33;65.94
83140;BME280;73027;54.208;19.128;2024-03-25T02:42:23;99983.28;;;7.34;66.94
83140;BME280;73027;54.208;19.128;2024-03-25T02:44:48;99985.84;;;7.34;66.69
83140;BME280;73027;54.208;19.128;2024-03-25T02:47:14;99985.03;;;7.33;66.09
83140;BME280;73027;54.208;19.128;2024-03-25T02:49:39;99978.22;;;7.32;66.74
83140;BME280;73027;54.208;19.128;2024-03-25T02:52:05;99980.81;;;7.31;66.16
83140;BME280;73027;54.208;19.128;2024-03-25T02:54:31;99978.38;;;7.28;66.91
83140;BME280;73027;54.208;19.128;2024-03-25T02:56:56;99983.53;;;7.26;67.02
83140;BME280;73027;54.208;19.128;2024-03-25T02:59:21;99981.06;;;7.23;67.08
83140;BME280;73027;54.208;19.128;2024-03-25T03:01:47;99988.72;;;7.25;67.06
83140;BME280;73027;54.208;19.128;2024-03-25T03:04:12;99992.13;;;7.25;66.83
83140;BME280;73027;54.208;19.128;2024-03-25T03:06:38;99991.22;;;7.26;67.30
83140;BME280;73027;54.208;19.128;2024-03-25T03:09:03;99976.09;;;7.18;66.40
83140;BME280;73027;54.208;19.128;2024-03-25T03:11:28;99991.13;;;7.29;67.11
83140;BME280;73027;54.208;19.128;2024-03-25T03:13:54;99994.09;;;7.17;66.88
83140;BME280;73027;54.208;19.128;2024-03-25T03:16:19;100003.09;;;7.02;67.34
83140;BME280;73027;54.208;19.128;2024-03-25T03:18:44;99991.44;;;6.92;67.68
83140;BME280;73027;54.208;19.128;2024-03-25T03:21:10;99993.97;;;6.94;67.14
83140;BME280;73027;54.208;19.128;2024-03-25T03:23:35;100002.25;;;7.02;67.81
83140;BME280;73027;54.208;19.128;2024-03-25T03:26:00;99991.88;;;7.06;67.22
83140;BME280;73027;54.208;19.128;2024-03-25T03:28:26;99996.66;;;7.17;67.25
83140;BME280;73027;54.208;19.128;2024-03-25T03:30:53;100000.72;;;7.23;67.19
83140;BME280;73027;54.208;19.128;2024-03-25T03:33:18;99989.59;;;7.24;67.02
83140;BME280;73027;54.208;19.128;2024-03-25T03:35:44;100004.09;;;7.25;66.98
83140;BME280;73027;54.208;19.128;2024-03-25T03:38:09;99999.00;;;7.23;67.44
83140;BME280;73027;54.208;19.128;2024-03-25T03:40:34;100006.75;;;7.22;67.19
83140;BME280;73027;54.208;19.128;2024-03-25T03:43:00;100002.47;;;7.22;67.06
83140;BME280;73027;54.208;19.128;2024-03-25T03:45:25;100001.56;;;7.23;66.94
83140;BME280;73027;54.208;19.128;2024-03-25T03:47:51;100005.03;;;7.22;66.68
83140;BME280;73027;54.208;19.128;2024-03-25T03:50:16;100005.81;;;7.24;66.96
83140;BME280;73027;54.208;19.128;2024-03-25T03:52:42;100007.53;;;7.24;67.12
83140;BME280;73027;54.208;19.128;2024-03-25T03:55:07;100008.38;;;7.24;66.94
83140;BME280;73027;54.208;19.128;2024-03-25T03:57:33;100018.72;;;7.21;67.17
83140;BME280;73027;54.208;19.128;2024-03-25T03:59:58;100003.44;;;7.18;66.85
83140;BME280;73027;54.208;19.128;2024-03-25T04:02:26;100005.06;;;7.21;67.21
83140;BME280;73027;54.208;19.128;2024-03-25T04:04:51;100005.91;;;7.21;66.72
83140;BME280;73027;54.208;19.128;2024-03-25T04:07:16;100016.09;;;7.23;66.72
83140;BME280;73027;54.208;19.128;2024-03-25T04:09:42;100012.59;;;7.25;67.50
83140;BME280;73027;54.208;19.128;2024-03-25T04:12:08;100016.88;;;7.25;67.21
83140;BME280;73027;54.208;19.128;2024-03-25T04:14:33;100010.06;;;7.25;67.16
83140;BME280;73027;54.208;19.128;2024-03-25T04:16:59;100015.19;;;7.25;67.19
83140;BME280;73027;54.208;19.128;2024-03-25T04:19:25;100018.63;;;7.24;66.78
83140;BME280;73027;54.208;19.128;2024-03-25T04:21:50;100022.13;;;7.22;67.25
83140;BME280;73027;54.208;19.128;2024-03-25T04:24:16;100024.56;;;7.25;66.95
83140;BME280;73027;54.208;19.128;2024-03-25T04:26:42;100024.63;;;7.23;67.12
83140;BME280;73027;54.208;19.128;2024-03-25T04:29:07;100033.94;;;7.26;67.00
83140;BME280;73027;54.208;19.128;2024-03-25T04:31:32;100033.97;;;7.24;66.94
83140;BME280;73027;54.208;19.128;2024-03-25T04:33:58;100027.31;;;7.18;66.98
83140;BME280;73027;54.208;19.128;2024-03-25T04:36:23;100034.22;;;7.16;66.89
83140;BME280;73027;54.208;19.128;2024-03-25T04:38:48;100035.09;;;7.15;67.44
83140;BME280;73027;54.208;19.128;2024-03-25T04:41:15;100043.59;;;7.17;67.18
83140;BME280;73027;54.208;19.128;2024-03-25T04:43:40;100041.91;;;7.16;66.82
83140;BME280;73027;54.208;19.128;2024-03-25T04:46:05;100042.91;;;7.11;67.06
83140;BME280;73027;54.208;19.128;2024-03-25T04:48:31;100053.97;;;7.13;67.55
83140;BME280;73027;54.208;19.128;2024-03-25T04:50:56;100049.72;;;7.12;67.20
83140;BME280;73027;54.208;19.128;2024-03-25T04:53:21;100055.78;;;7.09;67.08
83140;BME280;73027;54.208;19.128;2024-03-25T04:55:47;100052.41;;;7.07;67.10
83140;BME280;73027;54.208;19.128;2024-03-25T04:58:12;100059.31;;;7.05;67.04
83140;BME280;73027;54.208;19.128;2024-03-25T05:00:37;100057.66;;;7.04;67.06
83140;BME280;73027;54.208;19.128;2024-03-25T05:03:03;100056.06;;;7.00;66.80
83140;BME280;73027;54.208;19.128;2024-03-25T05:05:29;100058.59;;;7.02;67.25
83140;BME280;73027;54.208;19.128;2024-03-25T05:07:54;100066.28;;;7.00;67.26
83140;BME280;73027;54.208;19.128;2024-03-25T05:10:19;100063.81;;;6.99;67.67
83140;BME280;73027;54.208;19.128;2024-03-25T05:12:45;100064.47;;;7.04;67.96
83140;BME280;73027;54.208;19.128;2024-03-25T05:15:12;100069.38;;;7.11;67.80
83140;BME280;73027;54.208;19.128;2024-03-25T05:17:38;100075.22;;;7.15;67.47
83140;BME280;73027;54.208;19.128;2024-03-25T05:20:03;100071.06;;;7.12;67.62
83140;BME280;73027;54.208;19.128;2024-03-25T05:22:30;100084.59;;;7.16;66.80
83140;BME280;73027;54.208;19.128;2024-03-25T05:24:55;100081.88;;;7.22;67.39
83140;BME280;73027;54.208;19.128;2024-03-25T05:27:21;100076.69;;;7.24;66.99
83140;BME280;73027;54.208;19.128;2024-03-25T05:29:46;100087.56;;;7.30;67.06
83140;BME280;73027;54.208;19.128;2024-03-25T05:32:11;100077.28;;;7.32;67.15
83140;BME280;73027;54.208;19.128;2024-03-25T05:34:37;100093.06;;;7.46;66.86
83140;BME280;73027;54.208;19.128;2024-03-25T05:37:02;100086.94;;;7.50;67.34
83140;BME280;73027;54.208;19.128;2024-03-25T05:39:27;100089.38;;;7.54;66.79
83140;BME280;73027;54.208;19.128;2024-03-25T05:41:53;100091.78;;;7.59;66.82
83140;BME280;73027;54.208;19.128;2024-03-25T05:44:18;100089.19;;;7.60;66.59
83140;BME280;73027;54.208;19.128;2024-03-25T05:46:43;100087.28;;;7.65;66.69
83140;BME280;73027;54.208;19.128;2024-03-25T05:49:09;100089.75;;;7.68;66.85
83140;BME280;73027;54.208;19.128;2024-03-25T05:51:34;100089.72;;;7.70;66.80
83140;BME280;73027;54.208;19.128;2024-03-25T05:54:00;100093.81;;;7.76;66.68
83140;BME280;73027;54.208;19.128;2024-03-25T05:56:25;100093.81;;;7.76;66.77
83140;BME280;73027;54.208;19.128;2024-03-25T05:58:56;100088.69;;;7.76;66.44
83140;BME280;73027;54.208;19.128;2024-03-25T06:01:22;100092.03;;;7.78;66.93
83140;BME280;73027;54.208;19.128;2024-03-25T06:03:47;100095.28;;;7.83;66.30
83140;BME280;73027;54.208;19.128;2024-03-25T06:06:13;100098.59;;;7.86;66.09
83140;BME280;73027;54.208;19.128;2024-03-25T06:08:38;100101.88;;;7.90;66.12
83140;BME280;73027;54.208;19.128;2024-03-25T06:11:04;100103.50;;;7.92;66.08
83140;BME280;73027;54.208;19.128;2024-03-25T06:13:29;100099.91;;;7.98;65.99
83140;BME280;73027;54.208;19.128;2024-03-25T06:15:55;100108.19;;;8.06;65.82
83140;BME280;73027;54.208;19.128;2024-03-25T06:18:20;100102.09;;;8.08;66.35
83140;BME280;73027;54.208;19.128;2024-03-25T06:20:45;100100.25;;;8.12;65.88
83140;BME280;73027;54.208;19.128;2024-03-25T06:23:21;100113.66;;;8.20;65.35
83140;BME280;73027;54.208;19.128;2024-03-25T06:25:47;100113.63;;;8.22;66.10
83140;BME280;73027;54.208;19.128;2024-03-25T06:28:12;100126.31;;;8.26;66.37
83140;BME280;73027;54.208;19.128;2024-03-25T06:30:38;100121.34;;;8.20;65.25
83140;BME280;73027;54.208;19.128;2024-03-25T06:33:22;100129.53;;;8.06;65.71
83140;BME280;73027;54.208;19.128;2024-03-25T06:36:06;100132.97;;;8.05;66.45
83140;BME280;73027;54.208;19.128;2024-03-25T06:38:32;100138.84;;;8.09;65.63
83140;BME280;73027;54.208;19.128;2024-03-25T06:40:57;100141.63;;;8.03;66.48
83140;BME280;73027;54.208;19.128;2024-03-25T06:43:23;100142.19;;;8.11;66.35
83140;BME280;73027;54.208;19.128;2024-03-25T06:45:49;100149.47;;;8.23;66.10
83140;BME280;73027;54.208;19.128;2024-03-25T06:48:14;100152.53;;;8.34;66.32
83140;BME280;73027;54.208;19.128;2024-03-25T06:50:40;100150.50;;;8.44;65.52
83140;BME280;73027;54.208;19.128;2024-03-25T06:53:05;100142.94;;;8.41;65.90
83140;BME280;73027;54.208;19.128;2024-03-25T06:55:31;100163.50;;;8.39;65.45
83140;BME280;73027;54.208;19.128;2024-03-25T06:57:56;100171.34;;;8.08;65.99
83140;BME280;73027;54.208;19.128;2024-03-25T07:00:21;100165.28;;;7.85;67.09
83140;BME280;73027;54.208;19.128;2024-03-25T07:02:48;100170.84;;;7.71;66.84
83140;BME280;73027;54.208;19.128;2024-03-25T07:05:13;100180.41;;;7.66;67.97
83140;BME280;73027;54.208;19.128;2024-03-25T07:07:39;100185.78;;;7.58;67.86
83140;BME280;73027;54.208;19.128;2024-03-25T07:10:05;100179.66;;;7.62;68.24
83140;BME280;73027;54.208;19.128;2024-03-25T07:12:30;100189.06;;;7.62;67.93
83140;BME280;73027;54.208;19.128;2024-03-25T07:14:55;100185.75;;;7.60;68.52
83140;BME280;73027;54.208;19.128;2024-03-25T07:17:21;100188.81;;;7.71;68.55
83140;BME280;73027;54.208;19.128;2024-03-25T07:19:47;100197.34;;;7.72;68.48
83140;BME280;73027;54.208;19.128;2024-03-25T07:22:12;100197.00;;;7.54;68.32
83140;BME280;73027;54.208;19.128;2024-03-25T07:24:38;100201.47;;;7.48;68.40
83140;BME280;73027;54.208;19.128;2024-03-25T07:27:03;100199.81;;;7.45;69.13
83140;BME280;73027;54.208;19.128;2024-03-25T07:29:28;100197.84;;;7.55;69.29
83140;BME280;73027;54.208;19.128;2024-03-25T07:31:54;100193.72;;;7.77;69.51
83140;BME280;73027;54.208;19.128;2024-03-25T07:34:19;100196.53;;;7.96;68.69
83140;BME280;73027;54.208;19.128;2024-03-25T07:36:44;100209.69;;;8.13;68.59
83140;BME280;73027;54.208;19.128;2024-03-25T07:39:10;100202.47;;;8.24;67.77
83140;BME280;73027;54.208;19.128;2024-03-25T07:41:36;100215.69;;;8.38;67.37
83140;BME280;73027;54.208;19.128;2024-03-25T07:44:01;100206.97;;;8.44;66.76
83140;BME280;73027;54.208;19.128;2024-03-25T07:46:27;100208.69;;;8.43;66.95
83140;BME280;73027;54.208;19.128;2024-03-25T07:48:52;100206.97;;;8.44;66.56
83140;BME280;73027;54.208;19.128;2024-03-25T07:51:17;100210.88;;;8.54;66.53
83140;BME280;73027;54.208;19.128;2024-03-25T07:53:43;100200.59;;;8.55;66.09
83140;BME280;73027;54.208;19.128;2024-03-25T07:56:08;100200.31;;;8.63;66.52
83140;BME280;73027;54.208;19.128;2024-03-25T07:58:34;100204.66;;;8.86;66.56
83140;BME280;73027;54.208;19.128;2024-03-25T08:00:59;100208.09;;;8.85;65.75
83140;BME280;73027;54.208;19.128;2024-03-25T08:03:25;100204.66;;;8.86;65.62
83140;BME280;73027;54.208;19.128;2024-03-25T08:05:51;100200.63;;;9.02;65.72
83140;BME280;73027;54.208;19.128;2024-03-25T08:08:16;100209.94;;;9.28;65.16
83140;BME280;73027;54.208;19.128;2024-03-25T08:10:41;100204.66;;;9.32;64.94
83140;BME280;73027;54.208;19.128;2024-03-25T08:13:07;100205.88;;;9.45;64.11
83140;BME280;73027;54.208;19.128;2024-03-25T08:15:32;100203.94;;;9.50;63.79
83140;BME280;73027;54.208;19.128;2024-03-25T08:17:57;100210.00;;;9.71;63.49
83140;BME280;73027;54.208;19.128;2024-03-25T08:20:23;100209.38;;;9.88;62.57
83140;BME280;73027;54.208;19.128;2024-03-25T08:22:48;100214.44;;;10.11;62.57
83140;BME280;73027;54.208;19.128;2024-03-25T08:25:14;100218.13;;;10.26;61.77
83140;BME280;73027;54.208;19.128;2024-03-25T08:27:39;100218.22;;;10.44;61.56
83140;BME280;73027;54.208;19.128;2024-03-25T08:30:05;100217.22;;;10.47;60.69
83140;BME280;73027;54.208;19.128;2024-03-25T08:32:31;100221.03;;;10.59;60.68
83140;BME280;73027;54.208;19.128;2024-03-25T08:34:58;100229.22;;;10.68;59.54
83140;BME280;73027;54.208;19.128;2024-03-25T08:37:23;100225.06;;;10.66;59.56
83140;BME280;73027;54.208;19.128;2024-03-25T08:39:48;100228.91;;;10.76;59.69
83140;BME280;73027;54.208;19.128;2024-03-25T08:42:14;100226.63;;;10.88;58.81
83140;BME280;73027;54.208;19.128;2024-03-25T08:44:39;100222.44;;;10.86;59.12
83140;BME280;73027;54.208;19.128;2024-03-25T08:47:04;100236.53;;;10.97;58.99
83140;BME280;73027;54.208;19.128;2024-03-25T08:49:30;100233.50;;;11.08;59.00
83140;BME280;73027;54.208;19.128;2024-03-25T08:51:55;100235.59;;;11.19;58.50
83140;BME280;73027;54.208;19.128;2024-03-25T08:54:21;100237.19;;;11.40;58.60
83140;BME280;73027;54.208;19.128;2024-03-25T08:56:46;100234.97;;;11.70;58.04
83140;BME280;73027;54.208;19.128;2024-03-25T08:59:11;100238.94;;;11.96;56.63
83140;BME280;73027;54.208;19.128;2024-03-25T09:01:37;100247.50;;;11.96;56.78
83140;BME280;73027;54.208;19.128;2024-03-25T09:04:02;100247.72;;;11.91;56.37
83140;BME280;73027;54.208;19.128;2024-03-25T09:06:29;100244.09;;;12.13;55.96
83140;BME280;73027;54.208;19.128;2024-03-25T09:08:54;100241.31;;;12.69;55.41
83140;BME280;73027;54.208;19.128;2024-03-25T09:11:38;100238.81;;;13.17;53.25
83140;BME280;73027;54.208;19.128;2024-03-25T09:14:03;100234.97;;;12.92;53.62
83140;BME280;73027;54.208;19.128;2024-03-25T09:16:29;100240.72;;;12.81;53.69
83140;BME280;73027;54.208;19.128;2024-03-25T09:18:56;100246.50;;;12.69;52.95
83140;BME280;73027;54.208;19.128;2024-03-25T09:21:22;100246.38;;;12.87;53.13
83140;BME280;73027;54.208;19.128;2024-03-25T09:23:49;100244.47;;;13.72;52.34
83140;BME280;73027;54.208;19.128;2024-03-25T09:26:14;100246.63;;;13.64;50.34
83140;BME280;73027;54.208;19.128;2024-03-25T09:28:40;100236.53;;;13.44;51.02
83140;BME280;73027;54.208;19.128;2024-03-25T09:31:06;100239.22;;;13.74;51.46
83140;BME280;73027;54.208;19.128;2024-03-25T09:33:31;100245.59;;;14.14;50.74
83140;BME280;73027;54.208;19.128;2024-03-25T09:35:56;100244.63;;;14.30;50.14
83140;BME280;73027;54.208;19.128;2024-03-25T09:38:22;100242.97;;;14.29;49.73
83140;BME280;73027;54.208;19.128;2024-03-25T09:40:47;100249.34;;;14.40;49.72
83140;BME280;73027;54.208;19.128;2024-03-25T09:43:23;100239.50;;;14.74;49.82
83140;BME280;73027;54.208;19.128;2024-03-25T09:45:49;100248.69;;;15.92;47.88
83140;BME280;73027;54.208;19.128;2024-03-25T09:48:19;100255.34;;;16.62;45.59
83140;BME280;73027;54.208;19.128;2024-03-25T09:50:47;100255.44;;;16.60;44.70
83140;BME280;73027;54.208;19.128;2024-03-25T09:53:12;100254.28;;;16.12;43.13
83140;BME280;73027;54.208;19.128;2024-03-25T09:55:46;100259.81;;;15.24;45.03
83140;BME280;73027;54.208;19.128;2024-03-25T09:58:11;100257.06;;;16.09;45.83
83140;BME280;73027;54.208;19.128;2024-03-25T10:00:37;100257.69;;;16.79;44.15
83140;BME280;73027;54.208;19.128;2024-03-25T10:03:02;100261.19;;;17.41;42.29
83140;BME280;73027;54.208;19.128;2024-03-25T10:05:28;100268.59;;;18.07;41.28
83140;BME280;73027;54.208;19.128;2024-03-25T10:07:53;100268.16;;;17.41;39.00
83140;BME280;73027;54.208;19.128;2024-03-25T10:10:21;100255.38;;;17.25;41.35
83140;BME280;73027;54.208;19.128;2024-03-25T10:12:47;100255.72;;;17.93;39.77
83140;BME280;73027;54.208;19.128;2024-03-25T10:15:16;100259.53;;;18.48;38.27
83140;BME280;73027;54.208;19.128;2024-03-25T10:17:42;100267.69;;;18.89;36.64
83140;BME280;73027;54.208;19.128;2024-03-25T10:20:08;100263.94;;;19.16;36.45
83140;BME280;73027;54.208;19.128;2024-03-25T10:22:44;100266.66;;;19.25;36.14
83140;BME280;73027;54.208;19.128;2024-03-25T10:25:27;100271.06;;;19.25;35.64
83140;BME280;73027;54.208;19.128;2024-03-25T10:27:57;100272.41;;;18.73;35.47
83140;BME280;73027;54.208;19.128;2024-03-25T10:30:24;100269.94;;;18.48;35.53
83140;BME280;73027;54.208;19.128;2024-03-25T10:33:03;100282.00;;;17.90;35.28
83140;BME280;73027;54.208;19.128;2024-03-25T10:35:36;100277.44;;;17.32;37.17
83140;BME280;73027;54.208;19.128;2024-03-25T10:38:04;100281.09;;;17.17;38.16
83140;BME280;73027;54.208;19.128;2024-03-25T10:40:34;100276.16;;;17.63;38.03
83140;BME280;73027;54.208;19.128;2024-03-25T10:43:04;100283.06;;;17.88;37.09
83140;BME280;73027;54.208;19.128;2024-03-25T10:45:45;100278.13;;;17.96;37.08
83140;BME280;73027;54.208;19.128;2024-03-25T10:48:27;100279.91;;;17.46;35.72
83140;BME280;73027;54.208;19.128;2024-03-25T10:50:55;100273.38;;;17.15;37.52
83140;BME280;73027;54.208;19.128;2024-03-25T10:53:21;100287.28;;;17.52;38.17
83140;BME280;73027;54.208;19.128;2024-03-25T10:55:48;100285.16;;;17.34;36.79
83140;BME280;73027;54.208;19.128;2024-03-25T10:58:16;100283.47;;;17.33;37.73
83140;BME280;73027;54.208;19.128;2024-03-25T11:00:43;100276.59;;;17.19;36.94
83140;BME280;73027;54.208;19.128;2024-03-25T11:03:08;100282.53;;;16.96;37.50
83140;BME280;73027;54.208;19.128;2024-03-25T11:05:34;100282.28;;;16.61;36.83
83140;BME280;73027;54.208;19.128;2024-03-25T11:08:13;100282.31;;;16.74;37.00
83140;BME280;73027;54.208;19.128;2024-03-25T11:10:43;100301.34;;;16.74;37.66
83140;BME280;73027;54.208;19.128;2024-03-25T11:13:21;100279.72;;;16.07;38.71
83140;BME280;73027;54.208;19.128;2024-03-25T11:15:50;100278.44;;;15.17;40.90
83140;BME280;73027;54.208;19.128;2024-03-25T11:18:17;100283.06;;;14.54;41.97
83140;BME280;73027;54.208;19.128;2024-03-25T11:20:43;100280.69;;;14.04;43.50
83140;BME280;73027;54.208;19.128;2024-03-25T11:25:36;100292.69;;;13.42;45.22
83140;BME280;73027;54.208;19.128;2024-03-25T11:28:02;100277.53;;;13.19;45.80
83140;BME280;73027;54.208;19.128;2024-03-25T11:30:29;100288.88;;;13.16;45.99
83140;BME280;73027;54.208;19.128;2024-03-25T11:32:57;100292.06;;;13.21;46.37
83140;BME280;73027;54.208;19.128;2024-03-25T11:35:23;100280.72;;;13.24;45.87
83140;BME280;73027;54.208;19.128;2024-03-25T11:37:48;100288.66;;;13.36;45.92
83140;BME280;73027;54.208;19.128;2024-03-25T11:40:15;100288.66;;;13.36;46.11
83140;BME280;73027;54.208;19.128;2024-03-25T11:42:41;100287.13;;;13.65;46.22
83140;BME280;73027;54.208;19.128;2024-03-25T11:45:17;100281.84;;;13.98;45.59
83140;BME280;73027;54.208;19.128;2024-03-25T11:47:44;100290.25;;;14.49;44.87
83140;BME280;73027;54.208;19.128;2024-03-25T11:50:19;100286.03;;;15.34;44.10
83140;BME280;73027;54.208;19.128;2024-03-25T11:52:45;100288.25;;;15.83;41.79
83140;BME280;73027;54.208;19.128;2024-03-25T11:55:16;100278.38;;;16.14;40.93
83140;BME280;73027;54.208;19.128;2024-03-25T11:57:42;100283.88;;;15.69;40.65
83140;BME280;73027;54.208;19.128;2024-03-25T12:00:08;100281.84;;;15.03;41.51
83140;BME280;73027;54.208;19.128;2024-03-25T12:02:38;100290.78;;;14.69;42.90
83140;BME280;73027;54.208;19.128;2024-03-25T12:05:07;100284.53;;;14.58;43.18
83140;BME280;73027;54.208;19.128;2024-03-25T12:07:33;100285.00;;;14.50;43.21
83140;BME280;73027;54.208;19.128;2024-03-25T12:10:00;100286.78;;;14.03;42.99
83140;BME280;73027;54.208;19.128;2024-03-25T12:12:45;100293.72;;;13.55;43.95
83140;BME280;73027;54.208;19.128;2024-03-25T12:15:10;100281.06;;;13.33;44.71
83140;BME280;73027;54.208;19.128;2024-03-25T12:17:36;100287.88;;;13.19;45.23
83140;BME280;73027;54.208;19.128;2024-03-25T12:20:03;100286.72;;;13.07;45.21
83140;BME280;73027;54.208;19.128;2024-03-25T12:22:32;100286.28;;;12.99;46.35
83140;BME280;73027;54.208;19.128;2024-03-25T12:24:59;100278.84;;;13.10;46.83
83140;BME280;73027;54.208;19.128;2024-03-25T12:27:26;100287.09;;;13.34;46.87
83140;BME280;73027;54.208;19.128;2024-03-25T12:30:01;100288.44;;;13.41;46.32
83140;BME280;73027;54.208;19.128;2024-03-25T12:35:03;100287.19;;;12.98;47.01
83140;BME280;73027;54.208;19.128;2024-03-25T12:37:31;100294.38;;;12.59;48.02
83140;BME280;73027;54.208;19.128;2024-03-25T12:39:56;100299.13;;;12.32;48.59
83140;BME280;73027;54.208;19.128;2024-03-25T12:42:25;100294.41;;;12.23;49.33
83140;BME280;73027;54.208;19.128;2024-03-25T12:44:51;100299.81;;;12.00;49.04
83140;BME280;73027;54.208;19.128;2024-03-25T12:47:17;100299.19;;;11.94;49.89
83140;BME280;73027;54.208;19.128;2024-03-25T12:49:42;100295.28;;;11.86;49.90
83140;BME280;73027;54.208;19.128;2024-03-25T12:52:08;100297.16;;;11.64;52.13